sensor_id;sensor_type;location;lat;lon;timestamp;P1;durP1;ratioP1;P2;durP2;ratioP2
71303;SDS011;59091;47.446;19.148;2023-03-01T00:01:06;24.50;;;11.40;;
71303;SDS011;59091;47.446;19.148;2023-03-01T00:03:33;28.73;;;12.25;;
71303;SDS011;59091;47.446;19.148;2023-03-01T00:05:59;25.98;;;12.60;;
71303;SDS011;59091;47.446;19.148;2023-03-01T00:08:25;26.42;;;13.57;;
71303;SDS011;59091;47.446;19.148;2023-03-01T00:11:04;27.35;;;13.25;;
71303;SDS011;59091;47.446;19.148;2023-03-01T00:13:31;27.92;;;14.02;;
71303;SDS011;59091;47.446;19.148;2023-03-01T00:15:57;31.65;;;13.63;;
71303;SDS011;59091;47.446;19.148;2023-03-01T00:18:23;24.13;;;12.95;;
71303;SDS011;59091;47.446;19.148;2023-03-01T00:20:49;31.17;;;13.60;;
71303;SDS011;59091;47.446;19.148;2023-03-01T00:23:16;26.75;;;11.93;;
71303;SDS011;59091;47.446;19.148;2023-03-01T00:25:42;26.33;;;13.15;;
71303;SDS011;59091;47.446;19.148;2023-03-01T00:28:08;24.98;;;12.35;;
71303;SDS011;59091;47.446;19.148;2023-03-01T00:30:34;23.08;;;11.90;;
71303;SDS011;59091;47.446;19.148;2023-03-01T00:32:59;26.55;;;12.93;;
71303;SDS011;59091;47.446;19.148;2023-03-01T00:35:25;23.38;;;12.55;;
71303;SDS011;59091;47.446;19.148;2023-03-01T00:37:50;27.17;;;13.00;;
71303;SDS011;59091;47.446;19.148;2023-03-01T00:40:22;23.98;;;11.55;;
71303;SDS011;59091;47.446;19.148;2023-03-01T00:42:49;21.45;;;11.55;;
71303;SDS011;59091;47.446;19.148;2023-03-01T00:45:14;22.95;;;10.88;;
71303;SDS011;59091;47.446;19.148;2023-03-01T00:47:40;22.48;;;11.95;;
71303;SDS011;59091;47.446;19.148;2023-03-01T00:50:05;19.17;;;10.95;;
71303;SDS011;59091;47.446;19.148;2023-03-01T00:52:31;26.63;;;11.10;;
71303;SDS011;59091;47.446;19.148;2023-03-01T00:54:56;19.08;;;11.35;;
71303;SDS011;59091;47.446;19.148;2023-03-01T00:57:23;23.83;;;11.70;;
71303;SDS011;59091;47.446;19.148;2023-03-01T00:59:48;22.60;;;11.60;;
71303;SDS011;59091;47.446;19.148;2023-03-01T01:02:14;18.42;;;10.30;;
71303;SDS011;59091;47.446;19.148;2023-03-01T01:04:40;23.25;;;10.52;;
71303;SDS011;59091;47.446;19.148;2023-03-01T01:07:05;22.67;;;11.20;;
71303;SDS011;59091;47.446;19.148;2023-03-01T01:09:31;22.13;;;10.55;;
71303;SDS011;59091;47.446;19.148;2023-03-01T01:11:56;21.15;;;10.95;;
71303;SDS011;59091;47.446;19.148;2023-03-01T01:14:22;20.08;;;11.05;;
71303;SDS011;59091;47.446;19.148;2023-03-01T01:16:47;21.20;;;11.48;;
71303;SDS011;59091;47.446;19.148;2023-03-01T01:19:13;20.98;;;10.55;;
71303;SDS011;59091;47.446;19.148;2023-03-01T01:21:39;22.40;;;11.75;;
71303;SDS011;59091;47.446;19.148;2023-03-01T01:24:06;18.90;;;10.73;;
71303;SDS011;59091;47.446;19.148;2023-03-01T01:26:32;19.92;;;10.57;;
71303;SDS011;59091;47.446;19.148;2023-03-01T01:28:59;21.45;;;10.93;;
71303;SDS011;59091;47.446;19.148;2023-03-01T01:31:25;22.73;;;10.82;;
71303;SDS011;59091;47.446;19.148;2023-03-01T01:33:52;22.30;;;11.25;;
71303;SDS011;59091;47.446;19.148;2023-03-01T01:36:18;20.75;;;11.20;;
71303;SDS011;59091;47.446;19.148;2023-03-01T01:38:44;21.73;;;11.40;;
71303;SDS011;59091;47.446;19.148;2023-03-01T01:41:09;20.65;;;11.63;;
71303;SDS011;59091;47.446;19.148;2023-03-01T01:43:41;20.17;;;10.98;;
71303;SDS011;59091;47.446;19.148;2023-03-01T01:48:50;20.23;;;10.73;;
71303;SDS011;59091;47.446;19.148;2023-03-01T01:51:21;19.58;;;11.20;;
71303;SDS011;59091;47.446;19.148;2023-03-01T01:53:51;23.02;;;11.77;;
71303;SDS011;59091;47.446;19.148;2023-03-01T01:56:21;23.67;;;11.65;;
71303;SDS011;59091;47.446;19.148;2023-03-01T01:58:49;24.38;;;11.85;;
71303;SDS011;59091;47.446;19.148;2023-03-01T02:01:15;24.00;;;12.43;;
71303;SDS011;59091;47.446;19.148;2023-03-01T02:03:42;30.85;;;11.65;;
71303;SDS011;59091;47.446;19.148;2023-03-01T02:08:35;19.27;;;10.95;;
71303;SDS011;59091;47.446;19.148;2023-03-01T02:11:02;19.27;;;10.63;;
71303;SDS011;59091;47.446;19.148;2023-03-01T02:13:31;22.65;;;11.07;;
71303;SDS011;59091;47.446;19.148;2023-03-01T02:15:57;17.45;;;9.80;;
71303;SDS011;59091;47.446;19.148;2023-03-01T02:18:23;19.38;;;9.80;;
71303;SDS011;59091;47.446;19.148;2023-03-01T02:23:33;22.05;;;11.32;;
71303;SDS011;59091;47.446;19.148;2023-03-01T02:26:01;20.35;;;10.75;;
71303;SDS011;59091;47.446;19.148;2023-03-01T02:28:32;22.05;;;10.45;;
71303;SDS011;59091;47.446;19.148;2023-03-01T02:31:00;21.38;;;10.75;;
71303;SDS011;59091;47.446;19.148;2023-03-01T02:33:45;21.58;;;10.57;;
71303;SDS011;59091;47.446;19.148;2023-03-01T02:36:12;19.15;;;9.82;;
71303;SDS011;59091;47.446;19.148;2023-03-01T02:38:42;18.85;;;9.82;;
71303;SDS011;59091;47.446;19.148;2023-03-01T02:41:08;16.55;;;9.02;;
71303;SDS011;59091;47.446;19.148;2023-03-01T02:43:38;16.33;;;8.77;;
71303;SDS011;59091;47.446;19.148;2023-03-01T02:46:13;17.73;;;9.88;;
71303;SDS011;59091;47.446;19.148;2023-03-01T02:48:45;17.77;;;9.80;;
71303;SDS011;59091;47.446;19.148;2023-03-01T02:51:39;20.77;;;9.65;;
71303;SDS011;59091;47.446;19.148;2023-03-01T02:56:38;19.27;;;9.50;;
71303;SDS011;59091;47.446;19.148;2023-03-01T02:59:04;19.80;;;10.27;;
71303;SDS011;59091;47.446;19.148;2023-03-01T03:01:30;20.92;;;10.15;;
71303;SDS011;59091;47.446;19.148;2023-03-01T03:04:05;18.75;;;10.60;;
71303;SDS011;59091;47.446;19.148;2023-03-01T03:06:32;16.60;;;9.25;;
71303;SDS011;59091;47.446;19.148;2023-03-01T03:08:58;17.35;;;8.95;;
71303;SDS011;59091;47.446;19.148;2023-03-01T03:11:24;17.63;;;9.88;;
71303;SDS011;59091;47.446;19.148;2023-03-01T03:13:49;19.00;;;10.30;;
71303;SDS011;59091;47.446;19.148;2023-03-01T03:16:15;17.20;;;9.82;;
71303;SDS011;59091;47.446;19.148;2023-03-01T03:18:40;19.00;;;10.02;;
71303;SDS011;59091;47.446;19.148;2023-03-01T03:21:10;18.92;;;10.10;;
71303;SDS011;59091;47.446;19.148;2023-03-01T03:23:36;19.20;;;10.65;;
71303;SDS011;59091;47.446;19.148;2023-03-01T03:26:03;19.35;;;10.98;;
71303;SDS011;59091;47.446;19.148;2023-03-01T03:28:33;19.55;;;10.68;;
71303;SDS011;59091;47.446;19.148;2023-03-01T03:30:59;20.73;;;10.35;;
71303;SDS011;59091;47.446;19.148;2023-03-01T03:33:29;18.92;;;10.68;;
71303;SDS011;59091;47.446;19.148;2023-03-01T03:35:55;19.25;;;10.40;;
71303;SDS011;59091;47.446;19.148;2023-03-01T03:38:20;20.73;;;11.55;;
71303;SDS011;59091;47.446;19.148;2023-03-01T03:41:03;21.98;;;10.85;;
71303;SDS011;59091;47.446;19.148;2023-03-01T03:43:31;26.98;;;10.50;;
71303;SDS011;59091;47.446;19.148;2023-03-01T03:45:58;20.95;;;10.73;;
71303;SDS011;59091;47.446;19.148;2023-03-01T03:48:24;18.63;;;10.82;;
71303;SDS011;59091;47.446;19.148;2023-03-01T03:50:51;21.27;;;10.60;;
71303;SDS011;59091;47.446;19.148;2023-03-01T03:53:19;20.55;;;10.88;;
71303;SDS011;59091;47.446;19.148;2023-03-01T03:55:46;18.65;;;10.68;;
71303;SDS011;59091;47.446;19.148;2023-03-01T03:58:14;20.60;;;10.77;;
71303;SDS011;59091;47.446;19.148;2023-03-01T04:00:42;21.83;;;11.13;;
71303;SDS011;59091;47.446;19.148;2023-03-01T04:03:09;25.08;;;11.07;;
71303;SDS011;59091;47.446;19.148;2023-03-01T04:05:36;22.55;;;10.60;;
71303;SDS011;59091;47.446;19.148;2023-03-01T04:08:03;21.67;;;11.00;;
71303;SDS011;59091;47.446;19.148;2023-03-01T04:10:36;25.10;;;11.15;;
71303;SDS011;59091;47.446;19.148;2023-03-01T04:13:04;21.55;;;10.35;;
71303;SDS011;59091;47.446;19.148;2023-03-01T04:15:30;23.50;;;11.52;;
71303;SDS011;59091;47.446;19.148;2023-03-01T04:17:57;22.80;;;11.60;;
71303;SDS011;59091;47.446;19.148;2023-03-01T04:20:24;22.70;;;11.60;;
71303;SDS011;59091;47.446;19.148;2023-03-01T04:25:23;20.85;;;10.48;;
71303;SDS011;59091;47.446;19.148;2023-03-01T04:27:49;23.98;;;10.98;;
71303;SDS011;59091;47.446;19.148;2023-03-01T04:30:15;21.83;;;10.23;;
71303;SDS011;59091;47.446;19.148;2023-03-01T04:32:42;21.60;;;10.65;;
71303;SDS011;59091;47.446;19.148;2023-03-01T04:35:07;24.88;;;10.90;;
71303;SDS011;59091;47.446;19.148;2023-03-01T04:37:33;18.42;;;10.55;;
71303;SDS011;59091;47.446;19.148;2023-03-01T04:40:00;25.98;;;11.20;;
71303;SDS011;59091;47.446;19.148;2023-03-01T04:42:38;24.65;;;11.95;;
71303;SDS011;59091;47.446;19.148;2023-03-01T04:45:04;20.40;;;10.52;;
71303;SDS011;59091;47.446;19.148;2023-03-01T04:47:38;22.00;;;11.10;;
71303;SDS011;59091;47.446;19.148;2023-03-01T04:50:04;19.08;;;10.73;;
71303;SDS011;59091;47.446;19.148;2023-03-01T04:52:30;23.20;;;10.75;;
71303;SDS011;59091;47.446;19.148;2023-03-01T04:54:56;18.00;;;10.48;;
71303;SDS011;59091;47.446;19.148;2023-03-01T04:57:22;21.08;;;10.40;;
71303;SDS011;59091;47.446;19.148;2023-03-01T04:59:47;19.50;;;10.65;;
71303;SDS011;59091;47.446;19.148;2023-03-01T05:02:12;20.85;;;9.85;;
71303;SDS011;59091;47.446;19.148;2023-03-01T05:04:38;20.70;;;9.70;;
71303;SDS011;59091;47.446;19.148;2023-03-01T05:07:03;20.83;;;9.73;;
71303;SDS011;59091;47.446;19.148;2023-03-01T05:09:29;20.17;;;10.15;;
71303;SDS011;59091;47.446;19.148;2023-03-01T05:11:54;19.25;;;10.27;;
71303;SDS011;59091;47.446;19.148;2023-03-01T05:14:19;21.17;;;10.10;;
71303;SDS011;59091;47.446;19.148;2023-03-01T05:16:45;18.63;;;9.73;;
71303;SDS011;59091;47.446;19.148;2023-03-01T05:19:10;19.20;;;9.45;;
71303;SDS011;59091;47.446;19.148;2023-03-01T05:21:40;17.52;;;9.50;;
71303;SDS011;59091;47.446;19.148;2023-03-01T05:24:25;26.20;;;10.35;;
71303;SDS011;59091;47.446;19.148;2023-03-01T05:26:52;21.85;;;10.07;;
71303;SDS011;59091;47.446;19.148;2023-03-01T05:29:18;20.45;;;10.50;;
71303;SDS011;59091;47.446;19.148;2023-03-01T05:31:50;18.95;;;10.60;;
71303;SDS011;59091;47.446;19.148;2023-03-01T05:34:17;26.27;;;12.57;;
71303;SDS011;59091;47.446;19.148;2023-03-01T05:36:42;21.80;;;11.63;;
71303;SDS011;59091;47.446;19.148;2023-03-01T05:39:08;19.80;;;10.60;;
71303;SDS011;59091;47.446;19.148;2023-03-01T05:41:33;17.48;;;9.82;;
71303;SDS011;59091;47.446;19.148;2023-03-01T05:43:59;15.40;;;9.52;;
71303;SDS011;59091;47.446;19.148;2023-03-01T05:46:24;20.90;;;9.15;;
71303;SDS011;59091;47.446;19.148;2023-03-01T05:48:49;17.00;;;8.73;;
71303;SDS011;59091;47.446;19.148;2023-03-01T05:51:15;18.90;;;10.07;;
71303;SDS011;59091;47.446;19.148;2023-03-01T05:53:40;16.67;;;9.00;;
71303;SDS011;59091;47.446;19.148;2023-03-01T05:56:06;21.05;;;9.30;;
71303;SDS011;59091;47.446;19.148;2023-03-01T05:58:32;18.33;;;9.80;;
71303;SDS011;59091;47.446;19.148;2023-03-01T06:00:57;16.75;;;9.25;;
71303;SDS011;59091;47.446;19.148;2023-03-01T06:03:23;18.38;;;10.13;;
71303;SDS011;59091;47.446;19.148;2023-03-01T06:05:48;18.63;;;10.13;;
71303;SDS011;59091;47.446;19.148;2023-03-01T06:08:13;19.10;;;10.30;;
71303;SDS011;59091;47.446;19.148;2023-03-01T06:10:39;15.75;;;8.52;;
71303;SDS011;59091;47.446;19.148;2023-03-01T06:13:05;18.98;;;10.00;;
71303;SDS011;59091;47.446;19.148;2023-03-01T06:15:31;25.33;;;12.65;;
71303;SDS011;59091;47.446;19.148;2023-03-01T06:17:56;24.02;;;12.43;;
71303;SDS011;59091;47.446;19.148;2023-03-01T06:20:23;22.67;;;12.45;;
71303;SDS011;59091;47.446;19.148;2023-03-01T06:22:50;29.10;;;13.38;;
71303;SDS011;59091;47.446;19.148;2023-03-01T06:25:16;19.10;;;10.40;;
71303;SDS011;59091;47.446;19.148;2023-03-01T06:27:44;21.25;;;10.38;;
71303;SDS011;59091;47.446;19.148;2023-03-01T06:30:11;23.60;;;10.93;;
71303;SDS011;59091;47.446;19.148;2023-03-01T06:32:39;20.10;;;9.75;;
71303;SDS011;59091;47.446;19.148;2023-03-01T06:35:07;26.55;;;10.60;;
71303;SDS011;59091;47.446;19.148;2023-03-01T06:37:33;18.40;;;10.55;;
71303;SDS011;59091;47.446;19.148;2023-03-01T06:40:00;23.60;;;11.20;;
71303;SDS011;59091;47.446;19.148;2023-03-01T06:42:29;20.13;;;11.38;;
71303;SDS011;59091;47.446;19.148;2023-03-01T06:44:55;23.45;;;11.00;;
71303;SDS011;59091;47.446;19.148;2023-03-01T06:47:20;21.38;;;10.95;;
71303;SDS011;59091;47.446;19.148;2023-03-01T06:49:45;18.83;;;9.95;;
71303;SDS011;59091;47.446;19.148;2023-03-01T06:52:11;20.63;;;10.30;;
71303;SDS011;59091;47.446;19.148;2023-03-01T06:54:36;21.35;;;10.63;;
71303;SDS011;59091;47.446;19.148;2023-03-01T06:57:02;20.15;;;10.75;;
71303;SDS011;59091;47.446;19.148;2023-03-01T06:59:27;23.45;;;11.07;;
71303;SDS011;59091;47.446;19.148;2023-03-01T07:01:53;18.75;;;10.75;;
71303;SDS011;59091;47.446;19.148;2023-03-01T07:04:18;19.30;;;10.75;;
71303;SDS011;59091;47.446;19.148;2023-03-01T07:06:43;20.58;;;10.43;;
71303;SDS011;59091;47.446;19.148;2023-03-01T07:09:09;27.20;;;11.13;;
71303;SDS011;59091;47.446;19.148;2023-03-01T07:11:34;22.55;;;11.05;;
71303;SDS011;59091;47.446;19.148;2023-03-01T07:14:00;28.45;;;11.35;;
71303;SDS011;59091;47.446;19.148;2023-03-01T07:16:25;19.73;;;11.10;;
71303;SDS011;59091;47.446;19.148;2023-03-01T07:18:51;20.45;;;10.63;;
71303;SDS011;59091;47.446;19.148;2023-03-01T07:21:16;23.95;;;11.15;;
71303;SDS011;59091;47.446;19.148;2023-03-01T07:23:42;21.52;;;9.90;;
71303;SDS011;59091;47.446;19.148;2023-03-01T07:26:07;19.80;;;10.50;;
71303;SDS011;59091;47.446;19.148;2023-03-01T07:28:33;20.05;;;10.23;;
71303;SDS011;59091;47.446;19.148;2023-03-01T07:31:04;21.65;;;9.80;;
71303;SDS011;59091;47.446;19.148;2023-03-01T07:33:30;21.10;;;9.85;;
71303;SDS011;59091;47.446;19.148;2023-03-01T07:35:59;17.55;;;10.32;;
71303;SDS011;59091;47.446;19.148;2023-03-01T07:38:26;22.75;;;10.48;;
71303;SDS011;59091;47.446;19.148;2023-03-01T07:40:53;17.65;;;9.60;;
71303;SDS011;59091;47.446;19.148;2023-03-01T07:43:19;17.98;;;9.23;;
71303;SDS011;59091;47.446;19.148;2023-03-01T07:45:45;17.95;;;9.95;;
71303;SDS011;59091;47.446;19.148;2023-03-01T07:48:11;16.42;;;10.02;;
71303;SDS011;59091;47.446;19.148;2023-03-01T07:50:36;25.42;;;11.20;;
71303;SDS011;59091;47.446;19.148;2023-03-01T07:53:02;18.48;;;9.52;;
71303;SDS011;59091;47.446;19.148;2023-03-01T07:55:27;17.88;;;9.95;;
71303;SDS011;59091;47.446;19.148;2023-03-01T07:57:53;18.73;;;10.02;;
71303;SDS011;59091;47.446;19.148;2023-03-01T08:00:18;16.83;;;9.13;;
71303;SDS011;59091;47.446;19.148;2023-03-01T08:02:44;19.95;;;9.63;;
71303;SDS011;59091;47.446;19.148;2023-03-01T08:05:10;18.45;;;10.10;;
71303;SDS011;59091;47.446;19.148;2023-03-01T08:07:36;21.58;;;10.35;;
71303;SDS011;59091;47.446;19.148;2023-03-01T08:10:01;19.48;;;10.45;;
71303;SDS011;59091;47.446;19.148;2023-03-01T08:12:27;19.90;;;10.57;;
71303;SDS011;59091;47.446;19.148;2023-03-01T08:14:53;19.80;;;10.55;;
71303;SDS011;59091;47.446;19.148;2023-03-01T08:17:19;19.60;;;11.00;;
71303;SDS011;59091;47.446;19.148;2023-03-01T08:19:44;27.05;;;10.13;;
71303;SDS011;59091;47.446;19.148;2023-03-01T08:22:10;19.38;;;9.95;;
71303;SDS011;59091;47.446;19.148;2023-03-01T08:24:36;17.58;;;9.73;;
71303;SDS011;59091;47.446;19.148;2023-03-01T08:27:02;22.95;;;10.65;;
71303;SDS011;59091;47.446;19.148;2023-03-01T08:29:28;18.08;;;9.77;;
71303;SDS011;59091;47.446;19.148;2023-03-01T08:31:56;19.17;;;10.13;;
71303;SDS011;59091;47.446;19.148;2023-03-01T08:34:21;22.30;;;9.65;;
71303;SDS011;59091;47.446;19.148;2023-03-01T08:36:47;21.55;;;9.32;;
71303;SDS011;59091;47.446;19.148;2023-03-01T08:39:13;14.52;;;9.40;;
71303;SDS011;59091;47.446;19.148;2023-03-01T08:41:41;16.65;;;9.23;;
71303;SDS011;59091;47.446;19.148;2023-03-01T08:44:07;19.17;;;10.05;;
71303;SDS011;59091;47.446;19.148;2023-03-01T08:46:34;16.20;;;9.00;;
71303;SDS011;59091;47.446;19.148;2023-03-01T08:49:05;16.63;;;9.20;;
71303;SDS011;59091;47.446;19.148;2023-03-01T08:51:36;20.30;;;9.88;;
71303;SDS011;59091;47.446;19.148;2023-03-01T08:54:05;15.60;;;9.15;;
71303;SDS011;59091;47.446;19.148;2023-03-01T08:56:31;16.00;;;8.60;;
71303;SDS011;59091;47.446;19.148;2023-03-01T08:58:57;16.67;;;8.73;;
71303;SDS011;59091;47.446;19.148;2023-03-01T09:01:23;13.57;;;8.07;;
71303;SDS011;59091;47.446;19.148;2023-03-01T09:03:49;17.60;;;9.30;;
71303;SDS011;59091;47.446;19.148;2023-03-01T09:06:14;15.30;;;8.30;;
71303;SDS011;59091;47.446;19.148;2023-03-01T09:08:41;15.10;;;8.35;;
71303;SDS011;59091;47.446;19.148;2023-03-01T09:11:09;18.75;;;9.65;;
71303;SDS011;59091;47.446;19.148;2023-03-01T09:13:36;13.85;;;8.68;;
71303;SDS011;59091;47.446;19.148;2023-03-01T09:16:03;14.25;;;9.00;;
71303;SDS011;59091;47.446;19.148;2023-03-01T09:18:30;17.02;;;8.50;;
71303;SDS011;59091;47.446;19.148;2023-03-01T09:21:03;18.77;;;9.18;;
71303;SDS011;59091;47.446;19.148;2023-03-01T09:23:38;21.80;;;9.85;;
71303;SDS011;59091;47.446;19.148;2023-03-01T09:26:06;22.33;;;8.80;;
71303;SDS011;59091;47.446;19.148;2023-03-01T09:28:34;17.80;;;8.70;;
71303;SDS011;59091;47.446;19.148;2023-03-01T09:31:00;17.60;;;9.80;;
71303;SDS011;59091;47.446;19.148;2023-03-01T09:33:27;16.25;;;8.88;;
71303;SDS011;59091;47.446;19.148;2023-03-01T09:36:01;17.92;;;9.32;;
71303;SDS011;59091;47.446;19.148;2023-03-01T09:38:28;21.83;;;8.85;;
71303;SDS011;59091;47.446;19.148;2023-03-01T09:40:54;13.70;;;7.80;;
71303;SDS011;59091;47.446;19.148;2023-03-01T09:43:40;14.73;;;8.65;;
71303;SDS011;59091;47.446;19.148;2023-03-01T09:46:11;13.35;;;7.68;;
71303;SDS011;59091;47.446;19.148;2023-03-01T09:48:42;12.15;;;7.90;;
71303;SDS011;59091;47.446;19.148;2023-03-01T09:51:19;12.90;;;7.88;;
71303;SDS011;59091;47.446;19.148;2023-03-01T09:53:49;12.70;;;7.38;;
71303;SDS011;59091;47.446;19.148;2023-03-01T09:56:22;14.77;;;7.57;;
71303;SDS011;59091;47.446;19.148;2023-03-01T09:58:58;11.82;;;7.32;;
71303;SDS011;59091;47.446;19.148;2023-03-01T10:01:44;12.85;;;7.25;;
71303;SDS011;59091;47.446;19.148;2023-03-01T10:07:36;9.65;;;6.70;;
71303;SDS011;59091;47.446;19.148;2023-03-01T10:09:42;10.77;;;6.53;;
71303;SDS011;59091;47.446;19.148;2023-03-01T10:12:11;12.85;;;7.05;;
71303;SDS011;59091;47.446;19.148;2023-03-01T10:20:22;13.38;;;7.53;;
71303;SDS011;59091;47.446;19.148;2023-03-01T10:22:49;12.15;;;7.20;;
71303;SDS011;59091;47.446;19.148;2023-03-01T10:28:10;13.00;;;7.28;;
71303;SDS011;59091;47.446;19.148;2023-03-01T10:30:42;12.13;;;6.68;;
71303;SDS011;59091;47.446;19.148;2023-03-01T10:33:22;15.32;;;7.22;;
71303;SDS011;59091;47.446;19.148;2023-03-01T10:35:50;12.40;;;6.75;;
71303;SDS011;59091;47.446;19.148;2023-03-01T10:38:16;12.50;;;7.15;;
71303;SDS011;59091;47.446;19.148;2023-03-01T10:40:55;12.88;;;6.90;;
71303;SDS011;59091;47.446;19.148;2023-03-01T10:43:24;12.57;;;7.35;;
71303;SDS011;59091;47.446;19.148;2023-03-01T10:45:51;12.75;;;7.95;;
71303;SDS011;59091;47.446;19.148;2023-03-01T10:48:18;11.48;;;6.95;;
71303;SDS011;59091;47.446;19.148;2023-03-01T10:58:30;14.30;;;7.40;;
71303;SDS011;59091;47.446;19.148;2023-03-01T11:01:01;12.90;;;7.40;;
71303;SDS011;59091;47.446;19.148;2023-03-01T11:03:35;13.48;;;7.05;;
71303;SDS011;59091;47.446;19.148;2023-03-01T11:06:04;12.38;;;7.03;;
71303;SDS011;59091;47.446;19.148;2023-03-01T11:08:45;13.20;;;7.57;;
71303;SDS011;59091;47.446;19.148;2023-03-01T11:13:37;8.85;;;6.47;;
71303;SDS011;59091;47.446;19.148;2023-03-01T11:16:14;10.15;;;6.38;;
71303;SDS011;59091;47.446;19.148;2023-03-01T11:18:40;9.13;;;6.28;;
71303;SDS011;59091;47.446;19.148;2023-03-01T11:21:05;9.23;;;5.82;;
71303;SDS011;59091;47.446;19.148;2023-03-01T11:23:33;12.52;;;6.25;;
71303;SDS011;59091;47.446;19.148;2023-03-01T11:26:02;9.63;;;6.38;;
71303;SDS011;59091;47.446;19.148;2023-03-01T11:28:32;14.65;;;5.88;;
71303;SDS011;59091;47.446;19.148;2023-03-01T11:36:06;13.68;;;7.40;;
71303;SDS011;59091;47.446;19.148;2023-03-01T11:38:38;12.25;;;6.80;;
71303;SDS011;59091;47.446;19.148;2023-03-01T11:41:20;9.57;;;6.15;;
71303;SDS011;59091;47.446;19.148;2023-03-01T11:43:51;13.73;;;6.40;;
71303;SDS011;59091;47.446;19.148;2023-03-01T11:52:05;17.65;;;6.90;;
71303;SDS011;59091;47.446;19.148;2023-03-01T11:54:45;28.33;;;6.65;;
71303;SDS011;59091;47.446;19.148;2023-03-01T12:00:07;14.98;;;6.82;;
71303;SDS011;59091;47.446;19.148;2023-03-01T12:14:13;10.48;;;6.13;;
71303;SDS011;59091;47.446;19.148;2023-03-01T12:17:00;7.50;;;5.50;;
71303;SDS011;59091;47.446;19.148;2023-03-01T12:19:44;8.00;;;5.35;;
71303;SDS011;59091;47.446;19.148;2023-03-01T12:25:25;10.52;;;5.32;;
71303;SDS011;59091;47.446;19.148;2023-03-01T12:30:38;14.05;;;4.70;;
71303;SDS011;59091;47.446;19.148;2023-03-01T12:35:58;7.38;;;4.53;;
71303;SDS011;59091;47.446;19.148;2023-03-01T12:38:49;9.35;;;5.18;;
71303;SDS011;59091;47.446;19.148;2023-03-01T12:44:19;7.15;;;4.25;;
71303;SDS011;59091;47.446;19.148;2023-03-01T12:49:53;8.25;;;5.13;;
71303;SDS011;59091;47.446;19.148;2023-03-01T13:00:51;8.52;;;4.70;;
71303;SDS011;59091;47.446;19.148;2023-03-01T13:03:24;7.07;;;4.63;;
71303;SDS011;59091;47.446;19.148;2023-03-01T13:17:47;6.30;;;3.80;;
71303;SDS011;59091;47.446;19.148;2023-03-01T13:20:21;7.03;;;3.92;;
71303;SDS011;59091;47.446;19.148;2023-03-01T13:33:58;6.00;;;4.00;;
71303;SDS011;59091;47.446;19.148;2023-03-01T13:39:26;8.43;;;3.92;;
71303;SDS011;59091;47.446;19.148;2023-03-01T13:41:57;5.22;;;3.55;;
71303;SDS011;59091;47.446;19.148;2023-03-01T13:44:32;7.55;;;3.42;;
71303;SDS011;59091;47.446;19.148;2023-03-01T13:54:55;10.85;;;4.03;;
71303;SDS011;59091;47.446;19.148;2023-03-01T13:57:23;6.75;;;4.20;;
71303;SDS011;59091;47.446;19.148;2023-03-01T13:59:53;5.80;;;3.35;;
71303;SDS011;59091;47.446;19.148;2023-03-01T14:02:18;4.68;;;3.33;;
71303;SDS011;59091;47.446;19.148;2023-03-01T14:04:44;6.03;;;3.63;;
71303;SDS011;59091;47.446;19.148;2023-03-01T14:07:22;7.18;;;3.63;;
71303;SDS011;59091;47.446;19.148;2023-03-01T14:09:54;6.22;;;4.15;;
71303;SDS011;59091;47.446;19.148;2023-03-01T14:12:24;8.10;;;3.78;;
71303;SDS011;59091;47.446;19.148;2023-03-01T14:17:38;8.07;;;3.80;;
71303;SDS011;59091;47.446;19.148;2023-03-01T14:20:22;7.40;;;3.70;;
71303;SDS011;59091;47.446;19.148;2023-03-01T14:22:50;5.43;;;3.55;;
71303;SDS011;59091;47.446;19.148;2023-03-01T14:27:59;6.80;;;4.20;;
71303;SDS011;59091;47.446;19.148;2023-03-01T14:30:31;4.88;;;3.42;;
71303;SDS011;59091;47.446;19.148;2023-03-01T14:33:05;5.97;;;3.97;;
71303;SDS011;59091;47.446;19.148;2023-03-01T14:35:42;8.00;;;4.00;;
71303;SDS011;59091;47.446;19.148;2023-03-01T14:38:19;8.02;;;3.47;;
71303;SDS011;59091;47.446;19.148;2023-03-01T14:40:46;7.82;;;3.95;;
71303;SDS011;59091;47.446;19.148;2023-03-01T14:43:18;5.40;;;3.47;;
71303;SDS011;59091;47.446;19.148;2023-03-01T14:45:48;6.07;;;3.80;;
71303;SDS011;59091;47.446;19.148;2023-03-01T14:48:15;6.80;;;3.95;;
71303;SDS011;59091;47.446;19.148;2023-03-01T14:50:41;13.23;;;4.30;;
71303;SDS011;59091;47.446;19.148;2023-03-01T14:53:13;7.22;;;4.35;;
71303;SDS011;59091;47.446;19.148;2023-03-01T14:55:44;6.88;;;4.28;;
71303;SDS011;59091;47.446;19.148;2023-03-01T14:58:13;5.70;;;3.60;;
71303;SDS011;59091;47.446;19.148;2023-03-01T15:00:47;9.98;;;4.25;;
71303;SDS011;59091;47.446;19.148;2023-03-01T15:03:21;7.97;;;3.95;;
71303;SDS011;59091;47.446;19.148;2023-03-01T15:05:55;8.18;;;3.42;;
71303;SDS011;59091;47.446;19.148;2023-03-01T15:08:23;5.68;;;3.88;;
71303;SDS011;59091;47.446;19.148;2023-03-01T15:10:57;8.57;;;4.10;;
71303;SDS011;59091;47.446;19.148;2023-03-01T15:13:24;9.48;;;4.00;;
71303;SDS011;59091;47.446;19.148;2023-03-01T15:15:51;9.57;;;3.58;;
71303;SDS011;59091;47.446;19.148;2023-03-01T15:18:25;8.30;;;4.22;;
71303;SDS011;59091;47.446;19.148;2023-03-01T15:20:53;6.30;;;3.78;;
71303;SDS011;59091;47.446;19.148;2023-03-01T15:25:49;7.68;;;3.90;;
71303;SDS011;59091;47.446;19.148;2023-03-01T15:28:22;10.60;;;4.50;;
71303;SDS011;59091;47.446;19.148;2023-03-01T15:34:10;7.80;;;4.43;;
71303;SDS011;59091;47.446;19.148;2023-03-01T15:36:47;9.25;;;4.20;;
71303;SDS011;59091;47.446;19.148;2023-03-01T15:42:35;10.15;;;4.82;;
71303;SDS011;59091;47.446;19.148;2023-03-01T15:47:34;7.78;;;3.60;;
71303;SDS011;59091;47.446;19.148;2023-03-01T15:50:01;6.70;;;3.83;;
71303;SDS011;59091;47.446;19.148;2023-03-01T15:52:35;4.93;;;3.20;;
71303;SDS011;59091;47.446;19.148;2023-03-01T15:55:05;5.80;;;3.20;;
71303;SDS011;59091;47.446;19.148;2023-03-01T15:57:39;7.90;;;3.72;;
71303;SDS011;59091;47.446;19.148;2023-03-01T16:00:04;7.45;;;3.50;;
71303;SDS011;59091;47.446;19.148;2023-03-01T16:02:36;5.25;;;2.90;;
71303;SDS011;59091;47.446;19.148;2023-03-01T16:05:03;6.15;;;3.03;;
71303;SDS011;59091;47.446;19.148;2023-03-01T16:07:28;10.85;;;3.50;;
71303;SDS011;59091;47.446;19.148;2023-03-01T16:09:56;6.57;;;3.75;;
71303;SDS011;59091;47.446;19.148;2023-03-01T16:12:21;6.50;;;3.65;;
71303;SDS011;59091;47.446;19.148;2023-03-01T16:14:49;5.63;;;3.67;;
71303;SDS011;59091;47.446;19.148;2023-03-01T16:17:14;5.85;;;3.67;;
71303;SDS011;59091;47.446;19.148;2023-03-01T16:19:40;7.85;;;4.65;;
71303;SDS011;59091;47.446;19.148;2023-03-01T16:22:06;9.55;;;4.88;;
71303;SDS011;59091;47.446;19.148;2023-03-01T16:24:31;11.85;;;4.38;;
71303;SDS011;59091;47.446;19.148;2023-03-01T16:26:57;6.60;;;4.07;;
71303;SDS011;59091;47.446;19.148;2023-03-01T16:29:23;10.20;;;4.15;;
71303;SDS011;59091;47.446;19.148;2023-03-01T16:31:48;7.97;;;4.63;;
71303;SDS011;59091;47.446;19.148;2023-03-01T16:34:14;8.95;;;4.53;;
71303;SDS011;59091;47.446;19.148;2023-03-01T16:36:39;9.10;;;4.05;;
71303;SDS011;59091;47.446;19.148;2023-03-01T16:39:08;9.35;;;4.00;;